createdAt,value
2023-02-09T00:00:18.628Z,103110.28
2023-02-09T00:02:45.707Z,103103.25
2023-02-09T00:05:12.924Z,103102.78
2023-02-09T00:07:40.016Z,103112.38
2023-02-09T00:10:07.261Z,103120.47
2023-02-09T00:12:52.886Z,103108.47
2023-02-09T00:15:19.959Z,103108.00
2023-02-09T00:17:46.984Z,103073.88
2023-02-09T00:20:14.054Z,103112.34
2023-02-09T00:22:41.337Z,103112.91
2023-02-09T00:25:08.373Z,103106.47
2023-02-09T00:27:35.858Z,103113.97
2023-02-09T00:30:03.118Z,103103.00
2023-02-09T00:32:32.593Z,103098.38
2023-02-09T00:34:59.684Z,103096.69
2023-02-09T00:37:26.729Z,103101.50
2023-02-09T00:39:53.814Z,103082.88
2023-02-09T00:42:23.176Z,103108.19
2023-02-09T00:44:50.473Z,103110.25
2023-02-09T00:47:17.541Z,103101.56
2023-02-09T00:49:44.621Z,103089.31
2023-02-09T00:52:11.868Z,103088.56
2023-02-09T00:54:39.008Z,103094.78
2023-02-09T00:57:06.263Z,103091.22
2023-02-09T00:59:35.169Z,103090.16
2023-02-09T01:02:02.925Z,103096.13
2023-02-09T01:04:30.040Z,103097.63
2023-02-09T01:06:57.217Z,103091.00
2023-02-09T01:09:25.077Z,103102.38
2023-02-09T01:11:52.158Z,103096.25
2023-02-09T01:14:19.250Z,103091.44
2023-02-09T01:16:46.493Z,103094.88
2023-02-09T01:19:14.153Z,103095.47
2023-02-09T01:21:42.453Z,103088.91
2023-02-09T01:24:13.757Z,103086.31
2023-02-09T01:26:41.738Z,103089.75
2023-02-09T01:29:13.131Z,103069.56
2023-02-09T01:31:40.733Z,103058.59
2023-02-09T01:34:07.973Z,103072.81
2023-02-09T01:36:35.050Z,103088.47
2023-02-09T01:39:02.950Z,103074.56
2023-02-09T01:41:31.549Z,103086.03
2023-02-09T01:44:07.114Z,103095.13
2023-02-09T01:46:36.247Z,103084.69
2023-02-09T01:49:21.774Z,103075.25
2023-02-09T01:51:55.453Z,103087.50
2023-02-09T01:54:36.846Z,103069.44
2023-02-09T01:57:12.168Z,103057.63
2023-02-09T01:59:41.940Z,103056.75
2023-02-09T02:02:09.867Z,103064.66
2023-02-09T02:04:38.746Z,103064.66
2023-02-09T02:07:14.277Z,103067.19
2023-02-09T02:09:42.967Z,103065.56
2023-02-09T02:12:10.469Z,103050.63
2023-02-09T02:14:39.737Z,103047.22
2023-02-09T02:17:40.843Z,103051.22
2023-02-09T02:20:16.699Z,103045.13
2023-02-09T02:23:03.596Z,103044.19
2023-02-09T02:25:45.644Z,103043.47
2023-02-09T02:28:30.853Z,103038.97
2023-02-09T02:31:16.559Z,103040.44
2023-02-09T02:34:04.697Z,103033.75
2023-02-09T02:36:44.963Z,103033.56
2023-02-09T02:39:22.200Z,103036.09
2023-02-09T02:42:07.547Z,103028.81
2023-02-09T02:44:40.885Z,103030.44
2023-02-09T02:47:13.673Z,103028.66
2023-02-09T02:49:48.992Z,103037.50
2023-02-09T02:52:16.231Z,103033.16
2023-02-09T02:54:49.197Z,103025.53
2023-02-09T02:57:23.440Z,103023.41
2023-02-09T02:59:57.306Z,103031.19
2023-02-09T03:02:34.016Z,103019.06
2023-02-09T03:05:03.293Z,103015.50
2023-02-09T03:07:30.409Z,103024.47
2023-02-09T03:09:57.520Z,103018.31
2023-02-09T03:12:36.418Z,103010.56
2023-02-09T03:15:32.353Z,103006.38
2023-02-09T03:18:04.022Z,103007.88
2023-02-09T03:20:59.231Z,103001.28
2023-02-09T03:23:34.389Z,102992.06
2023-02-09T03:26:12.819Z,103001.88
2023-02-09T03:28:43.539Z,102996.53
2023-02-09T03:31:11.415Z,102974.44
2023-02-09T03:33:39.947Z,102970.53
2023-02-09T03:36:12.814Z,102979.09
2023-02-09T03:38:39.937Z,102974.75
2023-02-09T03:41:08.077Z,102974.75
2023-02-09T03:43:54.071Z,102970.25
2023-02-09T03:46:21.173Z,102972.34
2023-02-09T03:48:49.996Z,102962.06
2023-02-09T03:51:17.058Z,102959.34
2023-02-09T03:53:44.070Z,102946.06
2023-02-09T03:56:11.161Z,102950.38
2023-02-09T03:58:38.224Z,102948.75
2023-02-09T04:01:07.733Z,102957.13
2023-02-09T04:03:36.537Z,102959.03
2023-02-09T04:06:04.096Z,102970.09
2023-02-09T04:08:33.221Z,102972.31
2023-02-09T04:11:00.358Z,102969.78
2023-02-09T04:13:27.625Z,102967.50
2023-02-09T04:15:55.372Z,102967.25
2023-02-09T04:18:22.490Z,102961.84
2023-02-09T04:20:49.499Z,102962.59
2023-02-09T04:23:17.302Z,102948.69
2023-02-09T04:25:45.123Z,102948.19
2023-02-09T04:28:12.607Z,102954.00
2023-02-09T04:30:39.868Z,102952.25
2023-02-09T04:33:06.960Z,102968.50
2023-02-09T04:35:33.958Z,102967.47
2023-02-09T04:38:01.021Z,102963.88
2023-02-09T04:40:28.102Z,102963.13
2023-02-09T04:42:55.139Z,102965.81
2023-02-09T04:45:22.220Z,102945.63
2023-02-09T04:47:49.230Z,102960.50
2023-02-09T04:50:17.368Z,102956.88
2023-02-09T04:52:44.431Z,102958.84
2023-02-09T04:55:11.448Z,102968.09
2023-02-09T04:57:57.435Z,102966.19
2023-02-09T05:00:24.971Z,102956.72
2023-02-09T05:02:52.062Z,102970.75
2023-02-09T05:05:19.722Z,102968.50
2023-02-09T05:07:46.874Z,102964.03
2023-02-09T05:10:14.436Z,102974.91
2023-02-09T05:12:41.569Z,102972.69
2023-02-09T05:15:09.316Z,102977.63
2023-02-09T05:17:37.284Z,102978.38
2023-02-09T05:20:05.052Z,102970.75
2023-02-09T05:22:32.155Z,102956.66
2023-02-09T05:24:59.450Z,102957.94
2023-02-09T05:27:26.539Z,102961.63
2023-02-09T05:29:53.621Z,102972.06
2023-02-09T05:32:20.831Z,102978.47
2023-02-09T05:34:47.939Z,102976.66
2023-02-09T05:37:15.153Z,102982.97
2023-02-09T05:39:42.186Z,102983.56
2023-02-09T05:42:17.206Z,102993.72
2023-02-09T05:44:49.053Z,103000.09
2023-02-09T05:47:18.784Z,102996.66
2023-02-09T05:49:46.006Z,102988.25
2023-02-09T05:52:14.399Z,102995.28
2023-02-09T05:54:41.557Z,102988.06
2023-02-09T05:57:08.843Z,103000.84
2023-02-09T05:59:35.868Z,102985.53
2023-02-09T06:02:02.947Z,102992.31
2023-02-09T06:04:30.563Z,102997.97
2023-02-09T06:06:58.310Z,102983.75
2023-02-09T06:09:25.561Z,103007.22
2023-02-09T06:11:52.708Z,103013.16
2023-02-09T06:14:20.051Z,103017.06
2023-02-09T06:16:47.068Z,103017.88
2023-02-09T06:19:15.865Z,103016.09
2023-02-09T06:21:44.527Z,103021.50
2023-02-09T06:24:12.524Z,103025.41
2023-02-09T06:26:41.710Z,103024.66
2023-02-09T06:29:10.339Z,103019.84
2023-02-09T06:31:38.303Z,103007.00
2023-02-09T06:34:05.820Z,103021.25
2023-02-09T06:36:33.176Z,103018.53
2023-02-09T06:39:01.052Z,103022.28
2023-02-09T06:41:28.538Z,103030.47
2023-02-09T06:43:55.620Z,103020.75
2023-02-09T06:46:22.778Z,103037.44
2023-02-09T06:48:50.495Z,103045.41
2023-02-09T06:51:17.970Z,103052.44
2023-02-09T06:53:45.433Z,103066.00
2023-02-09T06:56:13.341Z,103057.00
2023-02-09T06:58:41.761Z,103067.81
2023-02-09T07:01:15.460Z,103060.53
2023-02-09T07:03:43.461Z,103053.94
2023-02-09T07:06:15.039Z,103056.97
2023-02-09T07:08:43.240Z,103058.63
2023-02-09T07:11:13.474Z,103053.41
2023-02-09T07:13:41.722Z,103059.22
2023-02-09T07:16:11.649Z,103056.25
2023-02-09T07:18:40.287Z,103054.91
2023-02-09T07:21:11.405Z,103048.53
2023-02-09T07:23:39.500Z,103042.13
2023-02-09T07:26:15.614Z,103036.66
2023-02-09T07:28:42.947Z,103042.19
2023-02-09T07:31:13.175Z,103031.38
2023-02-09T07:33:42.030Z,103022.25
2023-02-09T07:36:12.380Z,103035.84
2023-02-09T07:38:41.304Z,103037.97
2023-02-09T07:41:15.039Z,103054.81
2023-02-09T07:43:42.242Z,103056.03
2023-02-09T07:46:10.327Z,103029.50
2023-02-09T07:48:37.850Z,103010.09
2023-02-09T07:51:05.606Z,103014.78
2023-02-09T07:53:33.590Z,103015.75
2023-02-09T07:56:00.695Z,103021.69
2023-02-09T07:58:28.337Z,103018.44
2023-02-09T08:00:55.910Z,103016.78
2023-02-09T08:03:24.592Z,103010.69
2023-02-09T08:06:04.156Z,103019.03
2023-02-09T08:08:31.340Z,103010.84
2023-02-09T08:11:00.194Z,103007.28
2023-02-09T08:13:31.442Z,103025.34
2023-02-09T08:16:04.816Z,103052.97
2023-02-09T08:18:40.414Z,103045.91
2023-02-09T08:21:11.486Z,103046.56
2023-02-09T08:23:41.456Z,103025.66
2023-02-09T08:26:11.404Z,103027.81
2023-02-09T08:28:44.973Z,103035.47
2023-02-09T08:31:17.719Z,103030.56
2023-02-09T08:33:46.681Z,103048.81
2023-02-09T08:36:15.491Z,103054.22
2023-02-09T08:38:42.614Z,103059.63
2023-02-09T08:41:13.564Z,103030.00
2023-02-09T08:43:41.618Z,103036.00
2023-02-09T08:46:12.877Z,103042.91
2023-02-09T08:48:43.799Z,103028.56
2023-02-09T08:51:13.150Z,103022.31
2023-02-09T08:53:43.342Z,103022.44
2023-02-09T08:56:13.111Z,103023.34
2023-02-09T08:58:43.029Z,103029.03
2023-02-09T09:01:11.276Z,103028.72
2023-02-09T09:03:38.376Z,103036.38
2023-02-09T09:06:07.366Z,103039.78
2023-02-09T09:08:36.436Z,103033.97
2023-02-09T09:11:04.023Z,103029.63
2023-02-09T09:13:31.148Z,103031.72
2023-02-09T09:15:58.359Z,103044.31
2023-02-09T09:18:26.149Z,103044.91
2023-02-09T09:20:53.394Z,103022.31
2023-02-09T09:23:21.291Z,103019.13
2023-02-09T09:25:48.861Z,103022.59
2023-02-09T09:28:16.832Z,103027.69
2023-02-09T09:30:44.054Z,103008.81
2023-02-09T09:33:11.964Z,103026.91
2023-02-09T09:35:39.156Z,103042.50
2023-02-09T09:38:07.264Z,103052.06
2023-02-09T09:40:37.024Z,103046.81
2023-02-09T09:43:32.951Z,103046.94
2023-02-09T09:46:01.654Z,103056.41
2023-02-09T09:48:42.575Z,103036.44
2023-02-09T09:51:42.097Z,103062.78
2023-02-09T09:54:17.659Z,103060.53
2023-02-09T09:56:44.853Z,103069.38
2023-02-09T09:59:29.370Z,103084.19
2023-02-09T10:02:01.401Z,103077.00
2023-02-09T10:04:28.899Z,103068.84
2023-02-09T10:07:12.433Z,103074.97
2023-02-09T10:09:45.687Z,103065.75
2023-02-09T10:12:24.812Z,103064.06
2023-02-09T10:14:51.889Z,103053.13
2023-02-09T10:17:18.923Z,103074.78
2023-02-09T10:20:06.330Z,103080.91
2023-02-09T10:22:33.633Z,103074.69
2023-02-09T10:25:02.509Z,103066.72
2023-02-09T10:27:31.220Z,103065.47
2023-02-09T10:30:18.489Z,103043.53
2023-02-09T10:32:45.591Z,103057.00
2023-02-09T10:35:35.935Z,103064.59
2023-02-09T10:38:04.137Z,103069.84
2023-02-09T10:40:36.414Z,103085.13
2023-02-09T10:43:07.408Z,103081.00
2023-02-09T10:45:40.452Z,103092.16
2023-02-09T10:48:13.489Z,103101.84
2023-02-09T10:50:49.592Z,103105.72
2023-02-09T10:53:29.885Z,103097.59
2023-02-09T10:56:06.824Z,103104.00
2023-02-09T10:58:36.527Z,103099.66
2023-02-09T11:01:10.425Z,103111.19
2023-02-09T11:03:56.449Z,103098.84
2023-02-09T11:06:24.202Z,103105.88
2023-02-09T11:09:01.866Z,103101.44
2023-02-09T11:11:41.482Z,103101.72
2023-02-09T11:14:17.009Z,103093.34
2023-02-09T11:16:53.859Z,103109.78
2023-02-09T11:19:22.553Z,103111.22
2023-02-09T11:22:08.174Z,103101.81
2023-02-09T11:24:47.244Z,103102.63
2023-02-09T11:27:51.353Z,103098.31
2023-02-09T11:30:30.467Z,103108.56
2023-02-09T11:33:25.935Z,103100.41
2023-02-09T11:36:01.695Z,103092.16
2023-02-09T11:38:48.944Z,103098.03
2023-02-09T11:41:49.100Z,103086.63
2023-02-09T11:44:44.226Z,103094.97
2023-02-09T11:47:18.399Z,103086.78
2023-02-09T11:49:52.337Z,103095.25
2023-02-09T11:52:36.219Z,103086.69
2023-02-09T11:55:21.814Z,103090.53
2023-02-09T11:57:54.426Z,103075.56
2023-02-09T12:00:29.373Z,103085.28
2023-02-09T12:03:11.581Z,103081.09
2023-02-09T12:05:42.073Z,103068.78
2023-02-09T12:08:24.711Z,103070.94
2023-02-09T12:11:13.654Z,103071.22
2023-02-09T12:13:59.570Z,103068.66
2023-02-09T12:16:33.127Z,103073.53
2023-02-09T12:19:05.833Z,103070.31
2023-02-09T12:21:38.208Z,103073.16
2023-02-09T12:24:32.757Z,103062.16
2023-02-09T12:26:59.828Z,103056.50
2023-02-09T12:29:32.697Z,103043.72
2023-02-09T12:32:08.653Z,103041.91
2023-02-09T12:34:50.661Z,103050.09
2023-02-09T12:37:28.463Z,103046.78
2023-02-09T12:40:04.098Z,103041.22
2023-02-09T12:43:01.869Z,103047.38
2023-02-09T12:45:36.999Z,103041.22
2023-02-09T12:48:12.184Z,103047.09
2023-02-09T12:50:52.401Z,103042.56
2023-02-09T12:53:22.205Z,103046.69
2023-02-09T12:56:26.935Z,103047.31
2023-02-09T12:59:24.120Z,103049.22
2023-02-09T13:02:05.899Z,103041.78
2023-02-09T13:04:41.550Z,103040.97
2023-02-09T13:07:25.298Z,103044.56
2023-02-09T13:09:54.606Z,103038.94
2023-02-09T13:12:35.897Z,103036.50
2023-02-09T13:15:13.171Z,103038.91
2023-02-09T13:18:33.220Z,103031.16
2023-02-09T13:21:26.856Z,103039.31
2023-02-09T13:24:11.549Z,103039.84
2023-02-09T13:26:56.388Z,103054.31
2023-02-09T13:29:24.619Z,103052.50
2023-02-09T13:31:58.047Z,103057.34
2023-02-09T13:35:06.550Z,103058.00
2023-02-09T13:37:47.681Z,103055.72
2023-02-09T13:40:26.733Z,103063.97
2023-02-09T13:42:58.755Z,103061.41
2023-02-09T13:45:26.954Z,103061.41
2023-02-09T13:47:55.460Z,103058.47
2023-02-09T13:50:30.529Z,103050.31
2023-02-09T13:53:11.447Z,103056.31
2023-02-09T13:55:45.316Z,103052.97
2023-02-09T13:58:18.997Z,103050.69
2023-02-09T14:00:51.383Z,103056.31
2023-02-09T14:03:27.892Z,103061.56
2023-02-09T14:05:57.990Z,103062.22
2023-02-09T14:08:26.652Z,103052.91
2023-02-09T14:11:00.765Z,103064.19
2023-02-09T14:13:56.263Z,103061.63
2023-02-09T14:16:25.728Z,103063.69
2023-02-09T14:18:56.800Z,103059.44
2023-02-09T14:21:26.648Z,103066.09
2023-02-09T14:23:56.392Z,103060.09
2023-02-09T14:26:26.068Z,103060.75
2023-02-09T14:29:06.777Z,103066.66
2023-02-09T14:31:35.184Z,103056.91
2023-02-09T14:34:02.600Z,103058.97
2023-02-09T14:36:33.578Z,103064.31
2023-02-09T14:39:05.655Z,103059.19
2023-02-09T14:41:34.618Z,103068.00
2023-02-09T14:44:07.482Z,103066.09
2023-02-09T14:46:55.657Z,103072.91
2023-02-09T14:49:23.724Z,103067.13
2023-02-09T14:52:01.457Z,103082.25
2023-02-09T14:54:32.284Z,103087.38
2023-02-09T14:57:01.202Z,103084.81
2023-02-09T14:59:28.584Z,103087.53
2023-02-09T15:01:55.969Z,103086.13
2023-02-09T15:04:23.343Z,103096.47
2023-02-09T15:07:00.268Z,103105.97
2023-02-09T15:09:34.607Z,103103.19
2023-02-09T15:12:05.851Z,103103.28
2023-02-09T15:14:37.881Z,103107.75
2023-02-09T15:17:18.292Z,103109.56
2023-02-09T15:19:46.353Z,103112.78
2023-02-09T15:22:16.178Z,103112.78
2023-02-09T15:24:44.827Z,103110.22
2023-02-09T15:27:25.969Z,103112.78
2023-02-09T15:29:56.589Z,103109.19
2023-02-09T15:32:25.800Z,103116.09
2023-02-09T15:34:53.858Z,103116.88
2023-02-09T15:37:32.938Z,103110.47
2023-02-09T15:40:04.186Z,103114.19
2023-02-09T15:42:50.043Z,103111.47
2023-02-09T15:45:41.395Z,103117.41
2023-02-09T15:48:08.975Z,103114.59
2023-02-09T15:50:47.811Z,103117.91
2023-02-09T15:53:18.591Z,103122.00
2023-02-09T15:55:46.744Z,103116.66
2023-02-09T15:58:16.576Z,103119.22
2023-02-09T16:00:43.996Z,103124.34
2023-02-09T16:03:17.630Z,103125.75
2023-02-09T16:05:46.253Z,103127.28
2023-02-09T16:08:26.007Z,103126.50
2023-02-09T16:10:54.266Z,103126.63
2023-02-09T16:13:21.384Z,103126.50
2023-02-09T16:15:48.763Z,103131.75
2023-02-09T16:18:15.902Z,103136.75
2023-02-09T16:20:49.811Z,103136.13
2023-02-09T16:23:21.520Z,103136.88
2023-02-09T16:25:51.581Z,103139.44
2023-02-09T16:28:20.300Z,103143.69
2023-02-09T16:30:58.177Z,103142.75
2023-02-09T16:33:26.507Z,103152.03
2023-02-09T16:35:59.745Z,103152.78
2023-02-09T16:38:27.596Z,103149.19
2023-02-09T16:40:55.709Z,103156.59
2023-02-09T16:43:23.479Z,103167.63
2023-02-09T16:46:02.830Z,103167.38
2023-02-09T16:48:34.464Z,103182.88
2023-02-09T16:51:02.232Z,103174.81
2023-02-09T16:53:37.223Z,103171.84
2023-02-09T16:56:10.473Z,103190.56
2023-02-09T16:58:38.416Z,103194.91
2023-02-09T17:01:14.474Z,103200.16
2023-02-09T17:03:43.553Z,103193.41
2023-02-09T17:06:17.753Z,103199.41
2023-02-09T17:08:44.889Z,103190.28
2023-02-09T17:11:23.413Z,103208.63
2023-02-09T17:13:50.681Z,103205.53
2023-02-09T17:16:27.442Z,103211.06
2023-02-09T17:18:58.818Z,103210.41
2023-02-09T17:21:34.876Z,103220.28
2023-02-09T17:24:05.103Z,103210.03
2023-02-09T17:26:32.244Z,103211.69
2023-02-09T17:28:59.734Z,103209.91
2023-02-09T17:31:30.527Z,103210.03
2023-02-09T17:34:01.489Z,103196.44
2023-02-09T17:36:30.656Z,103215.16
2023-02-09T17:38:59.584Z,103222.94
2023-02-09T17:41:41.939Z,103227.97
2023-02-09T17:44:35.301Z,103227.06
2023-02-09T17:47:15.304Z,103218.34
2023-02-09T17:49:42.459Z,103223.09
2023-02-09T17:52:18.430Z,103232.84
2023-02-09T17:54:45.958Z,103222.31
2023-02-09T17:57:17.037Z,103230.13
2023-02-09T17:59:44.411Z,103227.44
2023-02-09T18:02:16.517Z,103233.34
2023-02-09T18:04:44.122Z,103247.56
2023-02-09T18:07:20.065Z,103245.66
2023-02-09T18:09:47.349Z,103242.06
2023-02-09T18:12:20.844Z,103255.91
2023-02-09T18:14:48.374Z,103239.34
2023-02-09T18:17:15.523Z,103251.41
2023-02-09T18:19:42.636Z,103254.19
2023-02-09T18:22:13.791Z,103251.00
2023-02-09T18:24:41.774Z,103270.97
2023-02-09T18:27:14.650Z,103274.03
2023-02-09T18:29:41.716Z,103257.38
2023-02-09T18:32:12.616Z,103267.09
2023-02-09T18:34:40.344Z,103278.63
2023-02-09T18:37:07.405Z,103268.72
2023-02-09T18:39:41.178Z,103264.53
2023-02-09T18:42:11.294Z,103276.94
2023-02-09T18:44:38.259Z,103275.47
2023-02-09T18:47:05.778Z,103283.38
2023-02-09T18:49:32.880Z,103271.47
2023-02-09T18:52:00.764Z,103285.28
2023-02-09T18:54:29.207Z,103286.53
2023-02-09T18:56:56.410Z,103256.63
2023-02-09T18:59:27.867Z,103291.63
2023-02-09T19:01:55.072Z,103295.41
2023-02-09T19:04:22.151Z,103289.75
2023-02-09T19:06:49.275Z,103288.69
2023-02-09T19:09:16.400Z,103305.81
2023-02-09T19:11:43.585Z,103300.13
2023-02-09T19:14:29.804Z,103291.91
2023-02-09T19:16:56.914Z,103292.41
2023-02-09T19:19:24.542Z,103299.03
2023-02-09T19:21:52.172Z,103300.53
2023-02-09T19:24:19.224Z,103295.19
2023-02-09T19:26:46.295Z,103294.81
2023-02-09T19:29:14.004Z,103289.03
2023-02-09T19:31:41.670Z,103299.91
2023-02-09T19:34:08.749Z,103303.94
2023-02-09T19:36:35.844Z,103304.06
2023-02-09T19:39:03.153Z,103310.84
2023-02-09T19:41:30.253Z,103307.53
2023-02-09T19:43:58.150Z,103310.09
2023-02-09T19:46:25.510Z,103319.84
2023-02-09T19:48:53.764Z,103331.88
2023-02-09T19:51:21.436Z,103334.41
2023-02-09T19:53:49.212Z,103334.91
2023-02-09T19:56:19.283Z,103338.22
2023-02-09T19:58:46.655Z,103334.38
2023-02-09T20:01:13.752Z,103343.06
2023-02-09T20:03:41.774Z,103334.63
2023-02-09T20:06:12.270Z,103336.50
2023-02-09T20:08:40.378Z,103336.13
2023-02-09T20:11:11.534Z,103341.72
2023-02-09T20:13:40.319Z,103347.91
2023-02-09T20:16:13.524Z,103344.50
2023-02-09T20:18:43.442Z,103342.56
2023-02-09T20:21:12.238Z,103334.84
2023-02-09T20:23:40.402Z,103340.56
2023-02-09T20:26:12.992Z,103349.56
2023-02-09T20:28:41.261Z,103350.19
2023-02-09T20:31:09.370Z,103344.06
2023-02-09T20:33:38.438Z,103358.03
2023-02-09T20:36:07.714Z,103354.91
2023-02-09T20:38:36.526Z,103366.19
2023-02-09T20:41:10.342Z,103364.50
2023-02-09T20:43:57.464Z,103353.28
2023-02-09T20:46:45.149Z,103366.44
2023-02-09T20:49:14.675Z,103364.94
2023-02-09T20:51:42.432Z,103365.88
2023-02-09T20:54:10.326Z,103364.69
2023-02-09T20:56:38.414Z,103364.94
2023-02-09T20:59:06.833Z,103352.66
2023-02-09T21:01:36.467Z,103369.31
2023-02-09T21:04:03.813Z,103367.97
2023-02-09T21:06:30.885Z,103381.31
2023-02-09T21:08:58.366Z,103378.34
2023-02-09T21:11:25.450Z,103379.56
2023-02-09T21:13:52.598Z,103382.56
2023-02-09T21:16:20.518Z,103394.16
2023-02-09T21:18:47.620Z,103391.16
2023-02-09T21:21:17.015Z,103396.88
2023-02-09T21:23:45.676Z,103393.44
2023-02-09T21:26:16.435Z,103395.09
2023-02-09T21:28:43.907Z,103403.06
2023-02-09T21:31:17.002Z,103390.16
2023-02-09T21:33:44.241Z,103401.44
2023-02-09T21:36:11.720Z,103402.16
2023-02-09T21:38:41.645Z,103406.25
2023-02-09T21:41:34.994Z,103403.97
2023-02-09T21:44:02.524Z,103390.16
2023-02-09T21:46:29.893Z,103405.34
2023-02-09T21:48:57.056Z,103408.47
2023-02-09T21:51:24.349Z,103405.91
2023-02-09T21:53:51.975Z,103404.28
2023-02-09T21:56:19.447Z,103392.28
2023-02-09T21:58:46.843Z,103392.41
2023-02-09T22:01:14.001Z,103406.38
2023-02-09T22:03:44.579Z,103380.72
2023-02-09T22:06:11.783Z,103391.53
2023-02-09T22:08:38.971Z,103380.41
2023-02-09T22:11:06.201Z,103381.31
2023-02-09T22:13:33.737Z,103383.69
2023-02-09T22:16:06.189Z,103386.41
2023-02-09T22:18:33.854Z,103385.22
2023-02-09T22:21:01.225Z,103384.31
2023-02-09T22:23:28.896Z,103374.09
2023-02-09T22:26:00.806Z,103379.50
2023-02-09T22:28:29.034Z,103380.41
2023-02-09T22:30:56.585Z,103386.25
2023-02-09T22:33:24.062Z,103382.81
2023-02-09T22:35:51.142Z,103390.91
2023-02-09T22:38:18.170Z,103394.78
2023-02-09T22:40:45.227Z,103389.84
2023-02-09T22:43:12.302Z,103387.31
2023-02-09T22:45:40.269Z,103387.13
2023-02-09T22:48:07.621Z,103383.22
2023-02-09T22:50:35.347Z,103393.56
2023-02-09T22:53:02.648Z,103394.91
2023-02-09T22:55:29.715Z,103399.84
2023-02-09T22:57:56.776Z,103400.44
2023-02-09T23:00:23.909Z,103399.69
2023-02-09T23:02:51.070Z,103394.44
2023-02-09T23:05:18.203Z,103399.56
2023-02-09T23:07:46.311Z,103403.13
2023-02-09T23:10:13.756Z,103405.09
2023-02-09T23:12:42.553Z,103406.75
2023-02-09T23:15:10.440Z,103404.34
2023-02-09T23:17:37.546Z,103399.25
2023-02-09T23:20:04.811Z,103394.41
2023-02-09T23:22:31.855Z,103400.84
2023-02-09T23:25:01.500Z,103399.34
2023-02-09T23:27:29.235Z,103407.63
2023-02-09T23:29:56.280Z,103396.22
2023-02-09T23:32:23.324Z,103401.63
2023-02-09T23:34:50.414Z,103393.53
2023-02-09T23:37:23.678Z,103404.31
2023-02-09T23:40:01.983Z,103402.38
2023-02-09T23:42:29.337Z,103404.19
2023-02-09T23:44:56.475Z,103408.81
2023-02-09T23:47:23.531Z,103414.53
2023-02-09T23:49:50.688Z,103422.81
2023-02-09T23:52:17.791Z,103398.50
2023-02-09T23:54:44.849Z,103403.91
2023-02-09T23:57:11.991Z,103410.78
2023-02-09T23:59:39.094Z,103414.28
